createdAt,value
2019-04-10T00:01:46.096Z,10.80
2019-04-10T00:05:50.009Z,10.80
2019-04-10T00:09:53.213Z,10.80
2019-04-10T00:13:56.348Z,10.70
2019-04-10T00:17:59.846Z,10.60
2019-04-10T00:22:04.180Z,10.80
2019-04-10T00:26:07.703Z,10.60
2019-04-10T00:30:11.219Z,10.70
2019-04-10T00:34:14.290Z,10.70
2019-04-10T00:38:17.678Z,10.60
2019-04-10T00:42:21.063Z,10.60
2019-04-10T00:46:24.694Z,10.60
2019-04-10T00:50:28.679Z,10.60
2019-04-10T00:54:33.012Z,10.70
2019-04-10T00:58:37.447Z,10.40
2019-04-10T01:02:41.327Z,10.50
2019-04-10T01:06:44.397Z,10.40
2019-04-10T01:10:47.576Z,10.50
2019-04-10T01:14:50.855Z,10.40
2019-04-10T01:18:54.080Z,10.50
2019-04-10T01:22:57.366Z,10.50
2019-04-10T01:27:01.306Z,10.50
2019-04-10T01:31:04.547Z,10.40
2019-04-10T01:35:07.935Z,10.30
2019-04-10T01:39:13.766Z,10.40
2019-04-10T01:43:18.956Z,10.40
2019-04-10T01:47:21.870Z,10.50
2019-04-10T01:51:25.509Z,10.40
2019-04-10T01:55:31.058Z,10.50
2019-04-10T01:59:36.159Z,10.40
2019-04-10T02:03:42.425Z,10.50
2019-04-10T02:07:57.840Z,10.40
2019-04-10T02:11:50.787Z,10.30
2019-04-10T02:15:54.468Z,10.30
2019-04-10T02:19:58.630Z,10.40
2019-04-10T02:24:02.857Z,10.30
2019-04-10T02:28:06.893Z,10.20
2019-04-10T02:32:10.345Z,10.30
2019-04-10T02:36:13.637Z,10.20
2019-04-10T02:40:17.265Z,10.20
2019-04-10T02:44:20.681Z,10.30
2019-04-10T02:48:25.201Z,10.30
2019-04-10T02:52:28.733Z,10.20
2019-04-10T02:56:33.242Z,10.20
2019-04-10T03:00:37.826Z,10.10
2019-04-10T03:04:42.641Z,10.00
2019-04-10T03:09:02.417Z,10.00
2019-04-10T03:12:52.426Z,10.00
2019-04-10T03:16:55.642Z,9.90
2019-04-10T03:20:58.686Z,9.70
2019-04-10T03:25:02.615Z,9.80
2019-04-10T03:29:07.360Z,9.70
2019-04-10T03:33:18.995Z,9.70
2019-04-10T03:37:18.137Z,9.60
2019-04-10T03:41:21.358Z,9.70
2019-04-10T03:45:24.646Z,9.70
2019-04-10T03:49:27.914Z,9.60
2019-04-10T03:53:31.977Z,9.50
2019-04-10T03:57:35.162Z,9.60
2019-04-10T04:01:38.925Z,9.60
2019-04-10T04:05:42.652Z,9.60
2019-04-10T04:09:46.046Z,9.60
2019-04-10T04:13:50.400Z,9.50
2019-04-10T04:17:54.715Z,9.40
2019-04-10T04:21:58.465Z,9.40
2019-04-10T04:26:01.705Z,9.40
2019-04-10T04:30:08.518Z,9.30
2019-04-10T04:34:12.267Z,9.20
2019-04-10T04:38:16.319Z,9.00
2019-04-10T04:42:19.535Z,9.00
2019-04-10T04:46:22.700Z,9.10
2019-04-10T04:50:27.035Z,8.90
2019-04-10T04:54:30.994Z,8.90
2019-04-10T04:58:34.260Z,9.00
2019-04-10T05:02:37.313Z,8.90
2019-04-10T05:06:41.924Z,8.90
2019-04-10T05:10:46.003Z,8.80
2019-04-10T05:14:49.525Z,8.70
2019-04-10T05:18:52.659Z,8.70
2019-04-10T05:22:55.819Z,8.60
2019-04-10T05:26:59.235Z,8.60
2019-04-10T05:31:03.091Z,8.50
2019-04-10T05:35:08.492Z,8.40
2019-04-10T05:39:12.628Z,8.50
2019-04-10T05:43:15.785Z,8.40
2019-04-10T05:47:19.251Z,8.40
2019-04-10T05:51:23.349Z,8.50
2019-04-10T05:55:26.693Z,8.40
2019-04-10T05:59:30.111Z,8.50
2019-04-10T06:03:33.482Z,8.50
2019-04-10T06:07:37.835Z,8.40
2019-04-10T06:11:42.979Z,8.40
2019-04-10T06:15:45.874Z,8.30
2019-04-10T06:19:49.006Z,8.40
2019-04-10T06:23:52.237Z,8.40
2019-04-10T06:27:55.279Z,8.50
2019-04-10T06:31:59.005Z,8.60
2019-04-10T06:36:02.850Z,8.40
2019-04-10T06:40:15.342Z,8.40
2019-04-10T06:44:11.884Z,8.50
2019-04-10T06:48:17.194Z,8.40
2019-04-10T06:52:20.693Z,8.40
2019-04-10T06:56:24.986Z,8.50
2019-04-10T07:00:28.636Z,8.40
2019-04-10T07:04:42.843Z,8.40
2019-04-10T07:08:40.179Z,8.50
2019-04-10T07:12:47.777Z,8.50
2019-04-10T07:16:51.199Z,8.50
2019-04-10T07:20:58.325Z,8.50
2019-04-10T07:25:00.496Z,8.60
2019-04-10T07:29:04.603Z,8.70
2019-04-10T07:33:07.767Z,8.90
2019-04-10T07:37:14.664Z,9.10
2019-04-10T07:41:21.021Z,9.20
2019-04-10T07:45:20.884Z,9.20
2019-04-10T07:49:26.652Z,9.40
2019-04-10T07:53:29.267Z,9.70
2019-04-10T07:57:32.889Z,9.70
2019-04-10T08:01:36.069Z,9.70
2019-04-10T08:05:39.296Z,9.90
2019-04-10T08:09:44.474Z,10.40
2019-04-10T08:13:47.680Z,10.50
2019-04-10T08:17:51.401Z,10.70
2019-04-10T08:21:54.885Z,11.60
2019-04-10T08:25:58.069Z,12.40
2019-04-10T08:30:01.258Z,12.30
2019-04-10T08:34:04.388Z,12.80
2019-04-10T08:38:07.663Z,12.90
2019-04-10T08:42:10.905Z,13.40
2019-04-10T08:46:14.821Z,13.70
2019-04-10T08:50:17.832Z,13.70
2019-04-10T08:54:20.853Z,13.60
2019-04-10T08:58:24.972Z,13.70
2019-04-10T09:02:28.313Z,14.60
2019-04-10T09:06:31.572Z,16.00
2019-04-10T09:10:36.612Z,16.80
2019-04-10T09:14:39.700Z,17.80
2019-04-10T09:18:42.781Z,16.80
2019-04-10T09:23:10.342Z,15.70
2019-04-10T09:26:50.899Z,15.70
2019-04-10T09:30:54.025Z,15.50
2019-04-10T09:34:58.211Z,14.90
2019-04-10T09:39:01.352Z,14.70
2019-04-10T09:43:05.087Z,14.40
2019-04-10T09:47:08.158Z,13.80
2019-04-10T09:51:11.771Z,13.50
2019-04-10T09:55:15.849Z,14.00
2019-04-10T09:59:30.589Z,14.00
2019-04-10T10:03:24.215Z,14.10
2019-04-10T10:07:28.364Z,14.50
2019-04-10T10:11:31.866Z,14.10
2019-04-10T10:15:35.574Z,13.70
2019-04-10T10:19:39.344Z,13.80
2019-04-10T10:23:44.649Z,14.40
2019-04-10T10:27:48.889Z,14.30
2019-04-10T10:31:52.685Z,14.20
2019-04-10T10:35:57.743Z,14.20
2019-04-10T10:40:01.337Z,14.90
2019-04-10T10:44:04.841Z,16.40
2019-04-10T10:48:08.677Z,16.70
2019-04-10T10:52:12.209Z,17.20
2019-04-10T10:56:15.379Z,16.80
2019-04-10T11:00:19.563Z,16.50
2019-04-10T11:04:23.259Z,16.50
2019-04-10T11:08:26.909Z,16.70
2019-04-10T11:12:31.089Z,17.50
2019-04-10T11:16:34.147Z,17.90
2019-04-10T11:20:37.156Z,17.70
2019-04-10T11:24:41.286Z,18.50
2019-04-10T11:28:45.620Z,18.20
2019-04-10T11:32:48.830Z,19.00
2019-04-10T11:37:14.230Z,18.50
2019-04-10T11:40:59.769Z,18.20
2019-04-10T11:45:05.216Z,17.60
2019-04-10T11:49:12.925Z,17.50
2019-04-10T11:53:14.556Z,17.30
2019-04-10T11:57:20.457Z,16.40
2019-04-10T12:01:25.519Z,16.10
2019-04-10T12:05:29.710Z,16.30
2019-04-10T12:13:38.952Z,16.60
2019-04-10T12:17:43.080Z,17.00
2019-04-10T12:21:47.613Z,17.40
2019-04-10T12:25:52.207Z,17.10
2019-04-10T12:29:55.827Z,18.30
2019-04-10T12:33:59.925Z,18.10
2019-04-10T12:38:08.115Z,18.40
2019-04-10T12:42:10.074Z,18.20
2019-04-10T12:46:13.301Z,18.10
2019-04-10T12:50:16.571Z,18.30
2019-04-10T12:54:19.672Z,18.70
2019-04-10T12:58:22.842Z,18.30
2019-04-10T13:02:26.178Z,18.90
2019-04-10T13:06:29.734Z,18.50
2019-04-10T13:10:33.617Z,18.50
2019-04-10T13:14:39.748Z,18.20
2019-04-10T13:18:42.979Z,18.10
2019-04-10T13:22:46.456Z,17.70
2019-04-10T13:26:50.209Z,17.40
2019-04-10T13:30:55.252Z,17.40
2019-04-10T13:34:58.360Z,17.10
2019-04-10T13:39:02.385Z,16.80
2019-04-10T13:43:05.621Z,16.60
2019-04-10T13:47:09.044Z,16.50
2019-04-10T13:51:13.111Z,16.10
2019-04-10T13:55:16.924Z,16.40
2019-04-10T13:59:20.690Z,16.80
2019-04-10T14:03:24.029Z,16.90
2019-04-10T14:07:28.285Z,16.80
2019-04-10T14:11:31.459Z,16.80
2019-04-10T14:15:36.194Z,17.00
2019-04-10T14:19:39.487Z,17.70
2019-04-10T14:23:43.132Z,17.50
2019-04-10T14:27:46.646Z,17.40
2019-04-10T14:31:51.763Z,17.30
2019-04-10T14:35:55.757Z,17.30
2019-04-10T14:39:59.833Z,17.70
2019-04-10T14:44:04.003Z,17.70
2019-04-10T14:48:07.909Z,17.40
2019-04-10T14:52:11.124Z,17.20
2019-04-10T14:56:14.384Z,16.90
2019-04-10T15:00:37.221Z,17.20
2019-04-10T15:04:41.400Z,16.60
2019-04-10T15:08:44.677Z,16.20
2019-04-10T15:12:47.994Z,15.80
2019-04-10T15:16:59.507Z,15.90
2019-04-10T15:20:58.605Z,15.80
2019-04-10T15:25:01.863Z,15.90
2019-04-10T15:29:05.838Z,16.00
2019-04-10T15:33:10.026Z,15.90
2019-04-10T15:37:13.244Z,15.80
2019-04-10T15:41:16.940Z,15.60
2019-04-10T15:45:20.092Z,15.70
2019-04-10T15:49:23.237Z,15.70
2019-04-10T15:53:26.483Z,15.60
2019-04-10T15:57:29.621Z,15.60
2019-04-10T16:01:33.060Z,15.50
2019-04-10T16:05:36.174Z,15.30
2019-04-10T16:09:48.624Z,15.00
2019-04-10T16:13:46.469Z,14.90
2019-04-10T16:18:00.639Z,14.90
2019-04-10T16:22:06.559Z,14.80
2019-04-10T16:26:11.083Z,14.80
2019-04-10T16:30:17.232Z,14.70
2019-04-10T16:34:20.617Z,14.70
2019-04-10T16:38:24.661Z,14.50
2019-04-10T16:42:28.584Z,14.40
2019-04-10T16:46:32.087Z,14.20
2019-04-10T16:50:36.411Z,14.10
2019-04-10T16:54:40.738Z,14.10
2019-04-10T16:58:44.474Z,14.10
2019-04-10T17:02:48.515Z,13.90
2019-04-10T17:06:52.571Z,13.80
2019-04-10T17:10:56.737Z,13.60
2019-04-10T17:14:59.910Z,13.50
2019-04-10T17:19:03.983Z,13.60
2019-04-10T17:23:08.150Z,13.30
2019-04-10T17:27:11.437Z,13.30
2019-04-10T17:31:14.549Z,13.20
2019-04-10T17:35:17.651Z,13.10
2019-04-10T17:39:20.709Z,13.00
2019-04-10T17:43:23.717Z,12.90
2019-04-10T17:47:27.015Z,12.80
2019-04-10T17:51:30.461Z,12.60
2019-04-10T17:55:35.699Z,12.50
2019-04-10T17:59:38.997Z,12.40
2019-04-10T18:03:50.413Z,12.10
2019-04-10T18:07:48.124Z,12.20
2019-04-10T18:11:51.414Z,12.00
2019-04-10T18:15:55.554Z,12.00
2019-04-10T18:20:01.260Z,11.80
2019-04-10T18:24:04.369Z,11.80
2019-04-10T18:28:07.754Z,11.60
2019-04-10T18:32:11.775Z,11.60
2019-04-10T18:36:15.377Z,11.50
2019-04-10T18:40:19.079Z,11.40
2019-04-10T18:44:22.746Z,11.40
2019-04-10T18:48:26.779Z,11.20
2019-04-10T18:52:30.132Z,11.10
2019-04-10T18:56:33.488Z,11.20
2019-04-10T19:00:41.180Z,11.10
2019-04-10T19:04:55.115Z,11.00
2019-04-10T19:09:08.271Z,10.90
2019-04-10T19:13:05.381Z,10.90
2019-04-10T19:17:09.113Z,10.70
2019-04-10T19:21:13.379Z,10.70
2019-04-10T19:25:16.538Z,10.70
2019-04-10T19:29:19.752Z,10.70
2019-04-10T19:33:23.760Z,10.60
2019-04-10T19:37:28.451Z,10.50
2019-04-10T19:41:37.808Z,10.50
2019-04-10T19:45:38.144Z,10.50
2019-04-10T19:49:41.360Z,10.40
2019-04-10T19:53:45.677Z,10.30
2019-04-10T19:57:49.975Z,10.20
2019-04-10T20:01:53.093Z,10.10
2019-04-10T20:05:56.159Z,10.20
2019-04-10T20:09:59.293Z,10.00
2019-04-10T20:14:04.035Z,9.90
2019-04-10T20:18:08.491Z,9.80
2019-04-10T20:22:12.811Z,9.90
2019-04-10T20:26:15.868Z,9.90
2019-04-10T20:30:20.937Z,9.60
2019-04-10T20:34:24.253Z,9.70
2019-04-10T20:38:27.456Z,9.70
2019-04-10T20:42:30.501Z,9.70
2019-04-10T20:46:33.947Z,9.60
2019-04-10T20:50:48.833Z,9.60
2019-04-10T20:54:53.062Z,9.50
2019-04-10T20:58:56.277Z,9.60
2019-04-10T21:03:04.189Z,9.40
2019-04-10T21:07:07.252Z,9.40
2019-04-10T21:11:11.620Z,9.40
2019-04-10T21:15:14.796Z,9.20
2019-04-10T21:19:18.499Z,9.20
2019-04-10T21:23:23.823Z,9.30
2019-04-10T21:27:28.105Z,9.30
2019-04-10T21:31:34.153Z,9.10
2019-04-10T21:35:39.336Z,9.00
2019-04-10T21:39:43.662Z,9.00
2019-04-10T21:43:47.386Z,9.10
2019-04-10T21:47:50.552Z,8.90
2019-04-10T21:52:06.074Z,8.90
2019-04-10T21:56:10.336Z,8.80
2019-04-10T22:00:16.407Z,8.70
2019-04-10T22:04:19.559Z,8.60
2019-04-10T22:08:42.465Z,8.50
2019-04-10T22:12:47.691Z,8.50
2019-04-10T22:16:50.590Z,8.50
2019-04-10T22:20:54.167Z,8.40
2019-04-10T22:24:59.137Z,8.30
2019-04-10T22:29:03.604Z,8.30
2019-04-10T22:33:07.647Z,8.20
2019-04-10T22:37:11.992Z,8.20
2019-04-10T22:41:23.636Z,8.20
2019-04-10T22:45:27.974Z,8.20
2019-04-10T22:49:32.633Z,8.00
2019-04-10T22:53:36.084Z,8.10
2019-04-10T22:57:40.913Z,8.00
2019-04-10T23:01:45.345Z,8.00
2019-04-10T23:05:48.926Z,7.90
2019-04-10T23:09:52.763Z,7.80
2019-04-10T23:13:56.385Z,7.80
2019-04-10T23:17:59.618Z,7.70
2019-04-10T23:22:05.154Z,7.70
2019-04-10T23:26:11.115Z,7.60
2019-04-10T23:30:18.685Z,7.60
2019-04-10T23:34:22.964Z,7.60
2019-04-10T23:38:26.124Z,7.60
2019-04-10T23:42:30.275Z,7.50
2019-04-10T23:46:36.898Z,7.40
2019-04-10T23:50:40.661Z,7.30
2019-04-10T23:54:41.936Z,7.20
2019-04-10T23:58:44.390Z,7.20
